Kitanomaru — JD2835 — position and weather

sailwx.info

Track history (hours):
 
Tides and Currents Weather Stations Pressure Air Temp Water Temp Dewpoint Dewpoint Depression Visibility Wind Speed Wind Dir Waves Ship Positions

Kitanomaru

Last reported at 2014-Aug-29 15:34 UTC. Time now 2014-Aug-29 16:23 UTC.
Position N 35°36' E 140°07'.

Length 39 m; draft 4 m.

Type: Tug. MMSI: 431000773.

Date/timePositionNaut miles runAvg speedWind from/ knotsBaromVisibWave heightAir tempDewpointWater temp
2014-Aug-29 15:34N 35°36' E 140°07'0 0.0
2014-Aug-29 14:33N 35°36' E 140°07'0 0.0
2014-Aug-29 13:33N 35°36' E 140°07'0 0.0
2014-Aug-29 12:33N 35°36' E 140°07'0 0.0
2014-Aug-29 11:33N 35°36' E 140°07'0 0.0
2014-Aug-29 10:33N 35°36' E 140°07'0 0.0
2014-Aug-29 09:34N 35°36' E 140°07'0 0.0
2014-Aug-29 08:33N 35°36' E 140°07'2 1.9
2014-Aug-29 07:33N 35°35' E 140°05'9 8.8
2014-Aug-29 06:34N 35°28' E 139°58'0 0.1
2014-Aug-29 05:34N 35°28' E 139°58'3 3.0
2014-Aug-29 04:33N 35°29' E 139°54'1 0.9
2014-Aug-29 03:33N 35°29' E 139°54'1 1.0
2014-Aug-29 02:34N 35°29' E 139°55'1110.8
2014-Aug-29 01:34N 35°35' E 140°06'1 1.0
2014-Aug-29 00:34N 35°36' E 140°07'0 0.0
2014-Aug-28 23:34N 35°36' E 140°07'0 0.0
2014-Aug-28 22:33N 35°36' E 140°07'0 0.0
2014-Aug-28 21:33N 35°36' E 140°07'0 0.0
2014-Aug-28 20:33N 35°36' E 140°07'0 0.0
2014-Aug-28 19:33N 35°36' E 140°07'0 0.0
2014-Aug-28 18:34N 35°36' E 140°07'0 0.0
2014-Aug-28 17:34N 35°36' E 140°07'0 0.0
2014-Aug-28 16:33N 35°36' E 140°07'0 0.0
2014-Aug-28 15:34N 35°36' E 140°07'0 0.0
2014-Aug-28 14:34N 35°36' E 140°07'0 0.0
2014-Aug-28 13:33N 35°36' E 140°07'0 0.0
2014-Aug-28 12:33N 35°36' E 140°07'0 0.0
2014-Aug-28 11:34N 35°36' E 140°07'0 0.0
2014-Aug-28 10:33N 35°36' E 140°07'0 0.0
2014-Aug-28 09:33N 35°36' E 140°07'0 0.0
2014-Aug-28 08:33N 35°36' E 140°07'0 0.0
2014-Aug-28 07:33N 35°36' E 140°07'1 1.2
2014-Aug-28 06:34N 35°36' E 140°05'1 1.3
2014-Aug-28 05:34N 35°36' E 140°07'0 0.0
2014-Aug-28 04:34N 35°36' E 140°07'0 0.0
2014-Aug-28 03:34N 35°36' E 140°07'0 0.0
2014-Aug-28 02:34N 35°36' E 140°07'1 1.0
2014-Aug-28 01:34N 35°35' E 140°06'2 1.7
2014-Aug-28 00:33N 35°36' E 140°04'9 9.3
2014-Aug-27 23:33N 35°31' E 139°54'1010.5
2014-Aug-27 22:33N 35°36' E 140°05'0 0.3
2014-Aug-27 21:34N 35°36' E 140°05'2 1.6
2014-Aug-27 20:33N 35°36' E 140°07'0 0.0
2014-Aug-27 19:33N 35°36' E 140°07'0 0.0
2014-Aug-27 18:34N 35°36' E 140°07'0 0.0
2014-Aug-27 17:33N 35°36' E 140°07'0 0.0
2014-Aug-27 16:34N 35°36' E 140°07'0 0.0
2014-Aug-27 15:34N 35°36' E 140°07'0 0.0
2014-Aug-27 14:33N 35°36' E 140°07'0 0.0
2014-Aug-27 13:33N 35°36' E 140°07'0 0.0
2014-Aug-27 12:34N 35°36' E 140°07'0 0.0
2014-Aug-27 11:33N 35°36' E 140°07'0 0.0
2014-Aug-27 10:34N 35°36' E 140°07'0 0.0
2014-Aug-27 09:34N 35°36' E 140°07'0 0.0
2014-Aug-27 08:33N 35°36' E 140°07'2 1.5
2014-Aug-27 07:33N 35°35' E 140°05'9 8.5
2014-Aug-27 06:34N 35°31' E 139°56'0 0.1
2014-Aug-27 05:33N 35°31' E 139°56'2 2.4
2014-Aug-27 04:33N 35°30' E 139°54'1 1.1
2014-Aug-27 03:34N 35°29' E 139°54'0 0.0
2014-Aug-27 02:33N 35°29' E 139°54'0 0.0
2014-Aug-27 01:33N 35°29' E 139°54'0 0.0
2014-Aug-27 00:34N 35°29' E 139°54'0 0.0
2014-Aug-26 23:33N 35°29' E 139°54'4 4.1
2014-Aug-26 22:34N 35°28' E 139°59'1 1.0
2014-Aug-26 21:33N 35°29' E 139°58'10 9.5
2014-Aug-26 20:33N 35°36' E 140°07'0 0.0
2014-Aug-26 19:34N 35°36' E 140°07'0 0.0
2014-Aug-26 18:33N 35°36' E 140°07'0 0.0
2014-Aug-26 17:33N 35°36' E 140°07'0 0.0
2014-Aug-26 16:34N 35°36' E 140°07'0 0.0
2014-Aug-26 15:34N 35°36' E 140°07'0 0.0
2014-Aug-26 14:33N 35°36' E 140°07'0 0.0
2014-Aug-26 13:34N 35°36' E 140°07'0 0.0
2014-Aug-26 12:33N 35°36' E 140°07'0 0.0
2014-Aug-26 11:33N 35°36' E 140°07'0 0.0
2014-Aug-26 10:34N 35°36' E 140°07'0 0.0
2014-Aug-26 09:33N 35°36' E 140°07'0 0.0
2014-Aug-26 08:33N 35°36' E 140°07'0 0.0
2014-Aug-26 07:33N 35°36' E 140°07'0 0.0
2014-Aug-26 06:33N 35°36' E 140°07'0 0.0
2014-Aug-26 05:34N 35°36' E 140°07'6 6.0
2014-Aug-26 04:33N 35°32' E 140°01'3 3.0
2014-Aug-26 03:34N 35°29' E 140°00'1 1.0
2014-Aug-26 02:33N 35°29' E 139°59'1 1.5
2014-Aug-26 01:33N 35°28' E 139°58'1 0.6
2014-Aug-26 00:34N 35°29' E 139°59'1 0.8
2014-Aug-25 23:33N 35°29' E 139°60'1 1.1
2014-Aug-25 22:34N 35°30' E 139°60'4 3.6
2014-Aug-25 21:33N 35°33' E 140°02'5 4.6
2014-Aug-25 20:33N 35°35' E 140°07'0 0.3
2014-Aug-25 19:34N 35°36' E 140°07'0 0.0
2014-Aug-25 18:33N 35°36' E 140°07'0 0.0
2014-Aug-25 17:34N 35°36' E 140°07'0 0.0
2014-Aug-25 16:34N 35°36' E 140°07'0 0.0
2014-Aug-25 15:33N 35°36' E 140°07'0 0.0
2014-Aug-25 14:33N 35°36' E 140°07'0 0.0
2014-Aug-25 13:33N 35°36' E 140°07'0 0.0
2014-Aug-25 12:33N 35°36' E 140°07'0 0.0
2014-Aug-25 11:34N 35°36' E 140°07'0 0.0
2014-Aug-25 10:33N 35°36' E 140°07'0 0.0
2014-Aug-25 09:33N 35°36' E 140°07'6 5.7
2014-Aug-25 08:34N 35°35' E 139°60'5 4.8
2014-Aug-25 07:34N 35°40' E 140°00'10 9.7
2014-Aug-25 06:33N 35°31' E 139°56'0 0.1
2014-Aug-25 05:33N 35°31' E 139°56'0 0.1
2014-Aug-25 04:33N 35°30' E 139°56'3 3.4
2014-Aug-25 03:33N 35°29' E 139°52'1110.7
2014-Aug-25 02:33N 35°35' E 140°04'3 2.9
2014-Aug-25 01:33N 35°36' E 140°07'9 8.9
2014-Aug-25 00:33N 35°29' E 139°60'1 1.5
2014-Aug-24 23:34N 35°30' E 139°59'8 8.0
2014-Aug-24 22:33N 35°36' E 140°07'0 0.0
2014-Aug-24 21:33N 35°36' E 140°07'0 0.0
2014-Aug-24 20:33N 35°36' E 140°07'0 0.0
2014-Aug-24 19:33N 35°36' E 140°07'0 0.0
2014-Aug-24 18:33N 35°36' E 140°07'0 0.0
2014-Aug-24 17:33N 35°36' E 140°07'0 0.0
2014-Aug-24 16:33N 35°36' E 140°07'0 0.0
2014-Aug-24 15:33N 35°36' E 140°07'0 0.0
2014-Aug-24 14:33N 35°36' E 140°07'0 0.0
2014-Aug-24 13:33N 35°36' E 140°07'0 0.0
2014-Aug-24 12:33N 35°36' E 140°07'0 0.0
2014-Aug-24 11:33N 35°36' E 140°07'0 0.0
2014-Aug-24 10:33N 35°36' E 140°07'0 0.0
2014-Aug-24 09:33N 35°36' E 140°07'0 0.0
2014-Aug-24 08:33N 35°36' E 140°07'0 0.0
2014-Aug-24 07:33N 35°36' E 140°07'1 0.5
2014-Aug-24 06:33N 35°35' E 140°06'10 9.5
2014-Aug-24 05:33N 35°31' E 139°56'0 0.0
2014-Aug-24 04:33N 35°31' E 139°56'2 1.6
2014-Aug-24 03:33N 35°30' E 139°55'3 3.5
2014-Aug-24 02:33N 35°32' E 139°58'8 8.3
2014-Aug-24 01:33N 35°36' E 140°07'0 0.0
2014-Aug-24 00:33N 35°36' E 140°07'0 0.0
2014-Aug-23 23:33N 35°36' E 140°07'1 1.3
2014-Aug-23 22:33N 35°36' E 140°05'3 3.1
2014-Aug-23 21:34N 35°35' E 140°02'4 4.1
2014-Aug-23 20:33N 35°36' E 140°07'0 0.0
2014-Aug-23 19:33N 35°36' E 140°07'0 0.0
2014-Aug-23 03:34N 35°36' E 140°07'0 0.0
2014-Aug-23 02:33N 35°36' E 140°07'0 0.0
2014-Aug-23 01:33N 35°36' E 140°07'0 0.0
2014-Aug-23 00:34N 35°36' E 140°07'0 0.0
2014-Aug-22 23:33N 35°36' E 140°07'1 0.7
2014-Aug-22 22:33N 35°36' E 140°06'1 1.3
2014-Aug-22 21:33N 35°35' E 140°04'2 2.0
2014-Aug-22 20:33N 35°36' E 140°07'0 0.0
2014-Aug-22 19:34N 35°36' E 140°07'0 0.0
2014-Aug-22 18:33N 35°36' E 140°07'0 0.0
2014-Aug-22 17:33N 35°36' E 140°07'0 0.0
2014-Aug-22 16:34N 35°36' E 140°07'0 0.0
2014-Aug-22 15:34N 35°36' E 140°07'0 0.0
2014-Aug-22 14:33N 35°36' E 140°07'1 1.1
2014-Aug-22 13:33N 35°36' E 140°06'2 2.1
2014-Aug-22 12:34N 35°35' E 140°03'3 3.4
2014-Aug-22 11:33N 35°34' E 139°59'0 0.0
2014-Aug-22 10:33N 35°34' E 139°59'0 0.0
2014-Aug-22 09:33N 35°34' E 139°59'5 5.4
2014-Aug-22 08:33N 35°35' E 140°06'1 1.0
2014-Aug-22 07:33N 35°36' E 140°07'0 0.0
2014-Aug-22 06:33N 35°36' E 140°07'0 0.0
2014-Aug-22 05:33N 35°36' E 140°07'0 0.0
2014-Aug-22 04:33N 35°36' E 140°07'9 8.6
2014-Aug-22 03:34N 35°30' E 139°59'2 1.9
2014-Aug-22 02:33N 35°28' E 139°58'2 2.4
2014-Aug-22 01:34N 35°30' E 139°56'5 4.7
2014-Aug-22 00:33N 35°33' E 140°00'6 6.3
2014-Aug-21 23:33N 35°36' E 140°07'0 0.0
2014-Aug-21 22:33N 35°36' E 140°07'0 0.0
2014-Aug-21 21:33N 35°36' E 140°07'0 0.0
2014-Aug-21 20:33N 35°36' E 140°07'0 0.0
2014-Aug-21 19:33N 35°36' E 140°07'0 0.0
2014-Aug-21 18:33N 35°36' E 140°07'0 0.0
2014-Aug-21 17:33N 35°36' E 140°07'0 0.0
2014-Aug-21 16:33N 35°36' E 140°07'0 0.0
2014-Aug-21 15:33N 35°36' E 140°07'0 0.0
2014-Aug-21 14:33N 35°36' E 140°07'0 0.0
2014-Aug-21 13:33N 35°36' E 140°07'0 0.0
2014-Aug-21 12:33N 35°36' E 140°07'0 0.0
2014-Aug-21 11:34N 35°36' E 140°07'0 0.0
2014-Aug-21 10:34N 35°36' E 140°07'0 0.0
2014-Aug-21 09:33N 35°36' E 140°07'0 0.0
2014-Aug-21 08:33N 35°36' E 140°07'0 0.1
2014-Aug-21 07:33N 35°36' E 140°07'1 0.8
2014-Aug-21 06:33N 35°35' E 140°06'1 0.8
2014-Aug-21 05:33N 35°36' E 140°07'0 0.0
2014-Aug-21 04:33N 35°36' E 140°07'0 0.0
2014-Aug-21 03:33N 35°36' E 140°07'0 0.0
2014-Aug-21 02:33N 35°36' E 140°07'0 0.0
2014-Aug-21 01:33N 35°36' E 140°07'0 0.0
2014-Aug-21 00:33N 35°36' E 140°07'0 0.0
2014-Aug-20 23:33N 35°36' E 140°07'1 1.4
2014-Aug-20 22:33N 35°36' E 140°05'3 3.4
2014-Aug-20 21:33N 35°34' E 140°02'0 0.3
2014-Aug-20 20:33N 35°34' E 140°02'4 4.0
2014-Aug-20 19:33N 35°36' E 140°07'0 0.0
2014-Aug-20 18:33N 35°36' E 140°07'0 0.0
2014-Aug-20 17:33N 35°36' E 140°07'0 0.0
2014-Aug-20 16:33N 35°36' E 140°07'0 0.0
2014-Aug-20 15:33N 35°36' E 140°07'0 0.0
2014-Aug-20 14:33N 35°36' E 140°07'0 0.0
2014-Aug-20 13:33N 35°36' E 140°07'0 0.0
2014-Aug-20 12:33N 35°36' E 140°07'0 0.0
2014-Aug-20 11:33N 35°36' E 140°07'0 0.0
2014-Aug-20 10:32N 35°36' E 140°07'0 0.0
2014-Aug-20 09:33N 35°36' E 140°07'0 0.0
2014-Aug-20 08:33N 35°36' E 140°07'0 0.0
2014-Aug-20 07:33N 35°36' E 140°07'1 0.9
2014-Aug-20 06:33N 35°36' E 140°06'1 1.0
2014-Aug-20 05:33N 35°35' E 140°05'0 0.0
2014-Aug-20 04:33N 35°35' E 140°05'0 0.0
2014-Aug-20 03:33N 35°35' E 140°05'7 6.7
2014-Aug-20 02:33N 35°30' E 139°59'2 1.9
2014-Aug-20 01:34N 35°28' E 139°58'0 0.4
2014-Aug-20 00:33N 35°29' E 139°58'0 0.5
2014-Aug-19 23:33N 35°28' E 139°58'3 3.1
2014-Aug-19 22:33N 35°31' E 140°00'7 7.3
2014-Aug-19 21:33N 35°36' E 140°07'0 0.0
2014-Aug-19 20:33N 35°36' E 140°07'0 0.0
2014-Aug-19 19:33N 35°36' E 140°07'0 0.0
2014-Aug-19 18:33N 35°36' E 140°07'0 0.0
2014-Aug-19 17:33N 35°36' E 140°07'0 0.0
2014-Aug-19 16:33N 35°36' E 140°07'  
Track history (hours):
 
Tides and Currents Weather Stations Pressure Air Temp Water Temp Dewpoint Dewpoint Depression Visibility Wind Speed Wind Dir Waves Ship Positions

Kitanomaru

Last reported at 2014-Aug-29 15:34 UTC. Time now 2014-Aug-29 16:23 UTC.
Position N 35°36' E 140°07'.

Length 39 m; draft 4 m.

Type: Tug. MMSI: 431000773.

Date/timePositionNaut miles runAvg speedWind from/ knotsBaromVisibWave heightAir tempDewpointWater temp
2014-Aug-29 15:34N 35°36' E 140°07'0 0.0
2014-Aug-29 14:33N 35°36' E 140°07'0 0.0
2014-Aug-29 13:33N 35°36' E 140°07'0 0.0
2014-Aug-29 12:33N 35°36' E 140°07'0 0.0
2014-Aug-29 11:33N 35°36' E 140°07'0 0.0
2014-Aug-29 10:33N 35°36' E 140°07'0 0.0
2014-Aug-29 09:34N 35°36' E 140°07'0 0.0
2014-Aug-29 08:33N 35°36' E 140°07'2 1.9
2014-Aug-29 07:33N 35°35' E 140°05'9 8.8
2014-Aug-29 06:34N 35°28' E 139°58'0 0.1
2014-Aug-29 05:34N 35°28' E 139°58'3 3.0
2014-Aug-29 04:33N 35°29' E 139°54'1 0.9
2014-Aug-29 03:33N 35°29' E 139°54'1 1.0
2014-Aug-29 02:34N 35°29' E 139°55'1110.8
2014-Aug-29 01:34N 35°35' E 140°06'1 1.0
2014-Aug-29 00:34N 35°36' E 140°07'0 0.0
2014-Aug-28 23:34N 35°36' E 140°07'0 0.0
2014-Aug-28 22:33N 35°36' E 140°07'0 0.0
2014-Aug-28 21:33N 35°36' E 140°07'0 0.0
2014-Aug-28 20:33N 35°36' E 140°07'0 0.0
2014-Aug-28 19:33N 35°36' E 140°07'0 0.0
2014-Aug-28 18:34N 35°36' E 140°07'0 0.0
2014-Aug-28 17:34N 35°36' E 140°07'0 0.0
2014-Aug-28 16:33N 35°36' E 140°07'0 0.0
2014-Aug-28 15:34N 35°36' E 140°07'0 0.0
2014-Aug-28 14:34N 35°36' E 140°07'0 0.0
2014-Aug-28 13:33N 35°36' E 140°07'0 0.0
2014-Aug-28 12:33N 35°36' E 140°07'0 0.0
2014-Aug-28 11:34N 35°36' E 140°07'0 0.0
2014-Aug-28 10:33N 35°36' E 140°07'0 0.0
2014-Aug-28 09:33N 35°36' E 140°07'0 0.0
2014-Aug-28 08:33N 35°36' E 140°07'0 0.0
2014-Aug-28 07:33N 35°36' E 140°07'1 1.2
2014-Aug-28 06:34N 35°36' E 140°05'1 1.3
2014-Aug-28 05:34N 35°36' E 140°07'0 0.0
2014-Aug-28 04:34N 35°36' E 140°07'0 0.0
2014-Aug-28 03:34N 35°36' E 140°07'0 0.0
2014-Aug-28 02:34N 35°36' E 140°07'1 1.0
2014-Aug-28 01:34N 35°35' E 140°06'2 1.7
2014-Aug-28 00:33N 35°36' E 140°04'9 9.3
2014-Aug-27 23:33N 35°31' E 139°54'1010.5
2014-Aug-27 22:33N 35°36' E 140°05'0 0.3
2014-Aug-27 21:34N 35°36' E 140°05'2 1.6
2014-Aug-27 20:33N 35°36' E 140°07'0 0.0
2014-Aug-27 19:33N 35°36' E 140°07'0 0.0
2014-Aug-27 18:34N 35°36' E 140°07'0 0.0
2014-Aug-27 17:33N 35°36' E 140°07'0 0.0
2014-Aug-27 16:34N 35°36' E 140°07'0 0.0
2014-Aug-27 15:34N 35°36' E 140°07'0 0.0
2014-Aug-27 14:33N 35°36' E 140°07'0 0.0
2014-Aug-27 13:33N 35°36' E 140°07'0 0.0
2014-Aug-27 12:34N 35°36' E 140°07'0 0.0
2014-Aug-27 11:33N 35°36' E 140°07'0 0.0
2014-Aug-27 10:34N 35°36' E 140°07'0 0.0
2014-Aug-27 09:34N 35°36' E 140°07'0 0.0
2014-Aug-27 08:33N 35°36' E 140°07'2 1.5
2014-Aug-27 07:33N 35°35' E 140°05'9 8.5
2014-Aug-27 06:34N 35°31' E 139°56'0 0.1
2014-Aug-27 05:33N 35°31' E 139°56'2 2.4
2014-Aug-27 04:33N 35°30' E 139°54'1 1.1
2014-Aug-27 03:34N 35°29' E 139°54'0 0.0
2014-Aug-27 02:33N 35°29' E 139°54'0 0.0
2014-Aug-27 01:33N 35°29' E 139°54'0 0.0
2014-Aug-27 00:34N 35°29' E 139°54'0 0.0
2014-Aug-26 23:33N 35°29' E 139°54'4 4.1
2014-Aug-26 22:34N 35°28' E 139°59'1 1.0
2014-Aug-26 21:33N 35°29' E 139°58'10 9.5
2014-Aug-26 20:33N 35°36' E 140°07'0 0.0
2014-Aug-26 19:34N 35°36' E 140°07'0 0.0
2014-Aug-26 18:33N 35°36' E 140°07'0 0.0
2014-Aug-26 17:33N 35°36' E 140°07'0 0.0
2014-Aug-26 16:34N 35°36' E 140°07'0 0.0
2014-Aug-26 15:34N 35°36' E 140°07'0 0.0
2014-Aug-26 14:33N 35°36' E 140°07'0 0.0
2014-Aug-26 13:34N 35°36' E 140°07'0 0.0
2014-Aug-26 12:33N 35°36' E 140°07'0 0.0
2014-Aug-26 11:33N 35°36' E 140°07'0 0.0
2014-Aug-26 10:34N 35°36' E 140°07'0 0.0
2014-Aug-26 09:33N 35°36' E 140°07'0 0.0
2014-Aug-26 08:33N 35°36' E 140°07'0 0.0
2014-Aug-26 07:33N 35°36' E 140°07'0 0.0
2014-Aug-26 06:33N 35°36' E 140°07'0 0.0
2014-Aug-26 05:34N 35°36' E 140°07'6 6.0
2014-Aug-26 04:33N 35°32' E 140°01'3 3.0
2014-Aug-26 03:34N 35°29' E 140°00'1 1.0
2014-Aug-26 02:33N 35°29' E 139°59'1 1.5
2014-Aug-26 01:33N 35°28' E 139°58'1 0.6
2014-Aug-26 00:34N 35°29' E 139°59'1 0.8
2014-Aug-25 23:33N 35°29' E 139°60'1 1.1
2014-Aug-25 22:34N 35°30' E 139°60'4 3.6
2014-Aug-25 21:33N 35°33' E 140°02'5 4.6
2014-Aug-25 20:33N 35°35' E 140°07'0 0.3
2014-Aug-25 19:34N 35°36' E 140°07'0 0.0
2014-Aug-25 18:33N 35°36' E 140°07'0 0.0
2014-Aug-25 17:34N 35°36' E 140°07'0 0.0
2014-Aug-25 16:34N 35°36' E 140°07'0 0.0
2014-Aug-25 15:33N 35°36' E 140°07'0 0.0
2014-Aug-25 14:33N 35°36' E 140°07'0 0.0
2014-Aug-25 13:33N 35°36' E 140°07'0 0.0
2014-Aug-25 12:33N 35°36' E 140°07'0 0.0
2014-Aug-25 11:34N 35°36' E 140°07'0 0.0
2014-Aug-25 10:33N 35°36' E 140°07'0 0.0
2014-Aug-25 09:33N 35°36' E 140°07'6 5.7
2014-Aug-25 08:34N 35°35' E 139°60'5 4.8
2014-Aug-25 07:34N 35°40' E 140°00'10 9.7
2014-Aug-25 06:33N 35°31' E 139°56'0 0.1
2014-Aug-25 05:33N 35°31' E 139°56'0 0.1
2014-Aug-25 04:33N 35°30' E 139°56'3 3.4
2014-Aug-25 03:33N 35°29' E 139°52'1110.7
2014-Aug-25 02:33N 35°35' E 140°04'3 2.9
2014-Aug-25 01:33N 35°36' E 140°07'9 8.9
2014-Aug-25 00:33N 35°29' E 139°60'1 1.5
2014-Aug-24 23:34N 35°30' E 139°59'8 8.0
2014-Aug-24 22:33N 35°36' E 140°07'0 0.0
2014-Aug-24 21:33N 35°36' E 140°07'0 0.0
2014-Aug-24 20:33N 35°36' E 140°07'0 0.0
2014-Aug-24 19:33N 35°36' E 140°07'0 0.0
2014-Aug-24 18:33N 35°36' E 140°07'0 0.0
2014-Aug-24 17:33N 35°36' E 140°07'0 0.0
2014-Aug-24 16:33N 35°36' E 140°07'0 0.0
2014-Aug-24 15:33N 35°36' E 140°07'0 0.0
2014-Aug-24 14:33N 35°36' E 140°07'0 0.0
2014-Aug-24 13:33N 35°36' E 140°07'0 0.0
2014-Aug-24 12:33N 35°36' E 140°07'0 0.0
2014-Aug-24 11:33N 35°36' E 140°07'0 0.0
2014-Aug-24 10:33N 35°36' E 140°07'0 0.0
2014-Aug-24 09:33N 35°36' E 140°07'0 0.0
2014-Aug-24 08:33N 35°36' E 140°07'0 0.0
2014-Aug-24 07:33N 35°36' E 140°07'1 0.5
2014-Aug-24 06:33N 35°35' E 140°06'10 9.5
2014-Aug-24 05:33N 35°31' E 139°56'0 0.0
2014-Aug-24 04:33N 35°31' E 139°56'2 1.6
2014-Aug-24 03:33N 35°30' E 139°55'3 3.5
2014-Aug-24 02:33N 35°32' E 139°58'8 8.3
2014-Aug-24 01:33N 35°36' E 140°07'0 0.0
2014-Aug-24 00:33N 35°36' E 140°07'0 0.0
2014-Aug-23 23:33N 35°36' E 140°07'1 1.3
2014-Aug-23 22:33N 35°36' E 140°05'3 3.1
2014-Aug-23 21:34N 35°35' E 140°02'4 4.1
2014-Aug-23 20:33N 35°36' E 140°07'0 0.0
2014-Aug-23 19:33N 35°36' E 140°07'0 0.0
2014-Aug-23 03:34N 35°36' E 140°07'0 0.0
2014-Aug-23 02:33N 35°36' E 140°07'0 0.0
2014-Aug-23 01:33N 35°36' E 140°07'0 0.0
2014-Aug-23 00:34N 35°36' E 140°07'0 0.0
2014-Aug-22 23:33N 35°36' E 140°07'1 0.7
2014-Aug-22 22:33N 35°36' E 140°06'1 1.3
2014-Aug-22 21:33N 35°35' E 140°04'2 2.0
2014-Aug-22 20:33N 35°36' E 140°07'0 0.0
2014-Aug-22 19:34N 35°36' E 140°07'0 0.0
2014-Aug-22 18:33N 35°36' E 140°07'0 0.0
2014-Aug-22 17:33N 35°36' E 140°07'0 0.0
2014-Aug-22 16:34N 35°36' E 140°07'0 0.0
2014-Aug-22 15:34N 35°36' E 140°07'0 0.0
2014-Aug-22 14:33N 35°36' E 140°07'1 1.1
2014-Aug-22 13:33N 35°36' E 140°06'2 2.1
2014-Aug-22 12:34N 35°35' E 140°03'3 3.4
2014-Aug-22 11:33N 35°34' E 139°59'0 0.0
2014-Aug-22 10:33N 35°34' E 139°59'0 0.0
2014-Aug-22 09:33N 35°34' E 139°59'5 5.4
2014-Aug-22 08:33N 35°35' E 140°06'1 1.0
2014-Aug-22 07:33N 35°36' E 140°07'0 0.0
2014-Aug-22 06:33N 35°36' E 140°07'0 0.0
2014-Aug-22 05:33N 35°36' E 140°07'0 0.0
2014-Aug-22 04:33N 35°36' E 140°07'9 8.6
2014-Aug-22 03:34N 35°30' E 139°59'2 1.9
2014-Aug-22 02:33N 35°28' E 139°58'2 2.4
2014-Aug-22 01:34N 35°30' E 139°56'5 4.7
2014-Aug-22 00:33N 35°33' E 140°00'6 6.3
2014-Aug-21 23:33N 35°36' E 140°07'0 0.0
2014-Aug-21 22:33N 35°36' E 140°07'0 0.0
2014-Aug-21 21:33N 35°36' E 140°07'0 0.0
2014-Aug-21 20:33N 35°36' E 140°07'0 0.0
2014-Aug-21 19:33N 35°36' E 140°07'0 0.0
2014-Aug-21 18:33N 35°36' E 140°07'0 0.0
2014-Aug-21 17:33N 35°36' E 140°07'0 0.0
2014-Aug-21 16:33N 35°36' E 140°07'0 0.0
2014-Aug-21 15:33N 35°36' E 140°07'0 0.0
2014-Aug-21 14:33N 35°36' E 140°07'0 0.0
2014-Aug-21 13:33N 35°36' E 140°07'0 0.0
2014-Aug-21 12:33N 35°36' E 140°07'0 0.0
2014-Aug-21 11:34N 35°36' E 140°07'0 0.0
2014-Aug-21 10:34N 35°36' E 140°07'0 0.0
2014-Aug-21 09:33N 35°36' E 140°07'0 0.0
2014-Aug-21 08:33N 35°36' E 140°07'0 0.1
2014-Aug-21 07:33N 35°36' E 140°07'1 0.8
2014-Aug-21 06:33N 35°35' E 140°06'1 0.8
2014-Aug-21 05:33N 35°36' E 140°07'0 0.0
2014-Aug-21 04:33N 35°36' E 140°07'0 0.0
2014-Aug-21 03:33N 35°36' E 140°07'0 0.0
2014-Aug-21 02:33N 35°36' E 140°07'0 0.0
2014-Aug-21 01:33N 35°36' E 140°07'0 0.0
2014-Aug-21 00:33N 35°36' E 140°07'0 0.0
2014-Aug-20 23:33N 35°36' E 140°07'1 1.4
2014-Aug-20 22:33N 35°36' E 140°05'3 3.4
2014-Aug-20 21:33N 35°34' E 140°02'0 0.3
2014-Aug-20 20:33N 35°34' E 140°02'4 4.0
2014-Aug-20 19:33N 35°36' E 140°07'0 0.0
2014-Aug-20 18:33N 35°36' E 140°07'0 0.0
2014-Aug-20 17:33N 35°36' E 140°07'0 0.0
2014-Aug-20 16:33N 35°36' E 140°07'0 0.0
2014-Aug-20 15:33N 35°36' E 140°07'0 0.0
2014-Aug-20 14:33N 35°36' E 140°07'0 0.0
2014-Aug-20 13:33N 35°36' E 140°07'0 0.0
2014-Aug-20 12:33N 35°36' E 140°07'0 0.0
2014-Aug-20 11:33N 35°36' E 140°07'0 0.0
2014-Aug-20 10:32N 35°36' E 140°07'0 0.0
2014-Aug-20 09:33N 35°36' E 140°07'0 0.0
2014-Aug-20 08:33N 35°36' E 140°07'0 0.0
2014-Aug-20 07:33N 35°36' E 140°07'1 0.9
2014-Aug-20 06:33N 35°36' E 140°06'1 1.0
2014-Aug-20 05:33N 35°35' E 140°05'0 0.0
2014-Aug-20 04:33N 35°35' E 140°05'0 0.0
2014-Aug-20 03:33N 35°35' E 140°05'7 6.7
2014-Aug-20 02:33N 35°30' E 139°59'2 1.9
2014-Aug-20 01:34N 35°28' E 139°58'0 0.4
2014-Aug-20 00:33N 35°29' E 139°58'0 0.5
2014-Aug-19 23:33N 35°28' E 139°58'3 3.1
2014-Aug-19 22:33N 35°31' E 140°00'7 7.3
2014-Aug-19 21:33N 35°36' E 140°07'0 0.0
2014-Aug-19 20:33N 35°36' E 140°07'0 0.0
2014-Aug-19 19:33N 35°36' E 140°07'0 0.0
2014-Aug-19 18:33N 35°36' E 140°07'0 0.0
2014-Aug-19 17:33N 35°36' E 140°07'0 0.0
2014-Aug-19 16:33N 35°36' E 140°07'  

Dump ship's entire track history